Time;durP1;ratioP1;P1;durP2;ratioP2;P2;SDS_P1;SDS_P2;PMS_P1;PMS_P2;Temp;Humidity;BMP_temperature;BMP_pressure;BME280_temperature;BME280_humidity;BME280_pressure;Samples;Min_cycle;Max_cycle;Signal;HPM_P1;HPM_P2
2022/03/17 00:02:23;;;;;;;;;8.67;7.67;;;;;13.71;58.94;101802.03;5044831;28;45583;-72
2022/03/17 00:04:49;;;;;;;;;7.67;7.00;;;;;13.68;58.68;101805.84;5043731;28;45432;-72
2022/03/17 00:07:15;;;;;;;;;8.00;6.00;;;;;13.59;58.88;101803.13;5036193;28;45527;-70
2022/03/17 00:09:40;;;;;;;;;6.00;6.00;;;;;13.12;58.97;101724.56;5050425;28;45949;-72
2022/03/17 00:12:06;;;;;;;;;2.33;2.33;;;;;13.67;59.11;101827.34;5056389;28;45583;-71
2022/03/17 00:14:31;;;;;;;;;9.33;7.67;;;;;13.62;59.21;101824.25;5044710;28;45561;-71
2022/03/17 00:16:59;;;;;;;;;10.00;8.00;;;;;13.52;59.24;101824.22;5042733;28;45547;-73
2022/03/17 00:19:25;;;;;;;;;6.67;6.00;;;;;13.27;59.35;101771.31;5044386;28;45556;-69
2022/03/17 00:21:50;;;;;;;;;8.00;8.00;;;;;13.54;59.27;101819.59;5039316;28;45436;-71
2022/03/17 00:24:17;;;;;;;;;10.33;9.67;;;;;13.53;59.13;101833.09;5055059;28;45323;-71
2022/03/17 00:26:45;;;;;;;;;12.33;9.67;;;;;13.54;59.15;101830.28;5057466;28;45193;-72
2022/03/17 00:29:11;;;;;;;;;10.67;10.67;;;;;13.58;59.12;101834.34;5018404;28;46763;-71
2022/03/17 00:31:37;;;;;;;;;9.00;8.00;;;;;13.17;59.37;101760.53;5025613;28;45303;-70
2022/03/17 00:34:05;;;;;;;;;10.67;9.67;;;;;13.54;59.21;101832.09;5044410;28;45415;-71
2022/03/17 00:36:30;;;;;;;;;11.33;11.33;;;;;13.46;59.02;101824.78;5038295;28;45589;-71
2022/03/17 00:38:55;;;;;;;;;11.00;8.00;;;;;13.46;59.31;101846.16;5037942;28;45706;-71
2022/03/17 00:41:21;;;;;;;;;13.67;11.33;;;;;13.32;59.10;101826.00;5044872;28;45620;-71
2022/03/17 00:43:46;;;;;;;;;11.00;11.00;;;;;13.24;59.24;101830.34;5055802;28;45445;-68
2022/03/17 00:46:11;;;;;;;;;12.00;12.00;;;;;13.30;59.37;101856.50;5038831;28;45452;-72
2022/03/17 00:48:37;;;;;;;;;12.00;12.00;;;;;13.04;59.57;101802.69;5055798;28;45322;-70
2022/03/17 00:51:02;;;;;;;;;15.00;12.67;;;;;13.30;59.26;101861.81;5058224;28;45207;-69
2022/03/17 00:53:30;;;;;;;;;15.00;15.00;;;;;13.15;59.43;101841.75;5054266;28;45521;-72
2022/03/17 00:55:55;;;;;;;;;18.00;17.67;;;;;13.23;59.61;101852.69;5046167;28;45459;-72
2022/03/17 00:58:22;;;;;;;;;12.67;11.33;;;;;13.34;59.94;101864.09;5041726;28;45388;-70
2022/03/17 01:00:48;;;;;;;;;14.00;13.67;;;;;13.20;59.80;101864.44;5037843;28;45391;-70
2022/03/17 01:03:13;;;;;;;;;17.33;16.33;;;;;13.24;60.38;101889.94;5037064;28;45303;-71
2022/03/17 01:05:41;;;;;;;;;14.33;14.33;;;;;13.10;59.92;101874.22;5038203;28;45443;-72
2022/03/17 01:08:08;;;;;;;;;19.33;18.33;;;;;13.09;60.30;101880.53;5045836;28;46502;-73
2022/03/17 01:10:33;;;;;;;;;22.00;20.00;;;;;13.17;60.63;101893.22;5058074;28;45211;-71
2022/03/17 01:13:01;;;;;;;;;18.33;18.33;;;;;13.19;60.68;101896.63;5044473;28;45265;-70
2022/03/17 01:15:29;;;;;;;;;22.00;18.67;;;;;13.09;60.66;101894.72;5038106;28;45511;-72
2022/03/17 01:17:54;;;;;;;;;23.00;22.00;;;;;13.05;61.48;101905.81;5041851;28;46168;-72
2022/03/17 01:20:20;;;;;;;;;24.67;24.00;;;;;12.67;61.02;101842.38;5055932;28;45267;-70
2022/03/17 01:22:45;;;;;;;;;21.33;21.33;;;;;12.70;61.57;101850.09;5057366;28;45482;-70
2022/03/17 01:25:18;;;;;;;;;26.33;18.33;;;;;12.41;61.95;101853.44;5131784;27;45274;-69
2022/03/17 01:27:43;;;;;;;;;21.67;20.67;;;;;12.62;61.94;101871.25;5129813;27;46346;-71
2022/03/17 01:30:09;;;;;;;;;21.67;20.67;;;;;12.85;62.37;101920.84;5114390;27;45360;-70
2022/03/17 01:32:35;;;;;;;;;21.00;21.00;;;;;12.87;61.72;101921.56;5130132;27;45462;-70
2022/03/17 01:35:00;;;;;;;;;16.67;16.67;;;;;12.62;61.74;101884.59;5114142;27;45537;-70
2022/03/17 01:37:27;;;;;;;;;22.00;22.00;;;;;12.88;62.02;101941.09;5113819;27;45509;-73
2022/03/17 01:39:53;;;;;;;;;23.67;23.67;;;;;12.93;61.66;101928.19;5107355;27;45268;-71
2022/03/17 01:42:19;;;;;;;;;21.67;21.00;;;;;12.92;61.53;101938.03;5115645;27;45307;-71
2022/03/17 01:44:44;;;;;;;;;26.67;22.67;;;;;12.73;62.32;101914.72;5114558;27;45866;-71
2022/03/17 01:47:28;;;;;;;;;25.33;24.33;;;;;12.61;62.32;101891.72;5113519;27;45422;-73
2022/03/17 01:49:59;;;;;;;;;29.33;25.67;;;;;12.91;62.25;101943.50;5114479;27;45390;-70
2022/03/17 01:52:25;;;;;;;;;26.33;22.33;;;;;12.86;62.56;101948.41;5113760;27;45266;-70
2022/03/17 01:54:51;;;;;;;;;21.67;21.67;;;;;12.82;62.49;101954.97;5113286;27;46374;-71
2022/03/17 01:57:17;;;;;;;;;29.67;24.33;;;;;12.80;62.95;101955.06;5113848;27;45486;-71
2022/03/17 01:59:42;;;;;;;;;21.33;21.33;;;;;12.72;62.83;101928.19;5113930;27;45243;-72
2022/03/17 02:02:10;;;;;;;;;20.00;20.00;;;;;12.89;62.29;101961.47;5112918;27;45478;-70
2022/03/17 02:04:38;;;;;;;;;23.00;23.00;;;;;12.89;62.26;101959.66;5114166;27;45706;-70
2022/03/17 02:07:05;;;;;;;;;25.33;21.33;;;;;12.90;62.41;101957.81;5108562;27;45442;-70
2022/03/17 02:09:31;;;;;;;;;26.00;23.00;;;;;12.66;62.37;101915.38;5113516;27;46325;-72
2022/03/17 02:14:52;;;;;;;;;24.33;21.33;;;;;12.82;62.46;101954.97;5113891;27;45781;-72
2022/03/17 02:17:23;;;;;;;;;25.67;24.67;;;;;12.71;62.06;101932.69;5111941;27;46393;-70
2022/03/17 02:19:49;;;;;;;;;24.67;23.33;;;;;12.85;62.54;101970.72;5113643;27;45503;-72
2022/03/17 02:22:18;;;;;;;;;22.33;21.00;;;;;12.86;62.58;101991.94;5113742;27;45338;-72
2022/03/17 02:27:33;;;;;;;;;19.33;19.33;;;;;12.69;62.73;101982.66;5113426;27;45235;-70
2022/03/17 02:29:59;;;;;;;;;21.33;21.33;;;;;12.82;62.80;102006.53;5113865;27;45274;-72
2022/03/17 02:32:25;;;;;;;;;26.00;23.00;;;;;12.64;62.45;101963.53;5112755;27;45571;-73
2022/03/17 02:34:50;;;;;;;;;20.67;20.67;;;;;12.68;62.22;101964.13;5108292;27;48952;-71
2022/03/17 02:37:16;;;;;;;;;19.33;17.33;;;;;12.83;62.38;101994.88;5095276;27;46309;-70
2022/03/17 02:39:42;;;;;;;;;22.00;21.33;;;;;12.53;62.48;101946.72;5100303;27;45382;-70
2022/03/17 02:42:10;;;;;;;;;24.33;23.33;;;;;12.68;61.94;101966.78;5099675;27;45476;-69
2022/03/17 02:44:36;;;;;;;;;22.67;20.33;;;;;12.70;62.29;101980.84;5098138;27;47805;-70
2022/03/17 02:47:01;;;;;;;;;24.33;21.67;;;;;12.72;62.29;101977.06;5099358;27;45382;-70
2022/03/17 02:49:28;;;;;;;;;22.67;20.67;;;;;12.61;62.26;101977.09;5098113;27;45481;-70
2022/03/17 02:51:54;;;;;;;;;23.00;23.00;;;;;12.64;61.86;102000.88;5099725;27;45488;-71
2022/03/17 02:54:19;;;;;;;;;20.33;18.33;;;;;12.75;62.15;102024.84;5097190;27;45551;-69
2022/03/17 02:56:45;;;;;;;;;20.50;19.00;;;;;12.74;61.92;102009.81;5099700;27;45345;-71
2022/03/17 02:59:11;;;;;;;;;22.33;21.00;;;;;12.74;61.94;102014.31;5099544;27;45505;-70
2022/03/17 03:01:36;;;;;;;;;25.00;21.00;;;;;12.16;61.73;101928.41;5098392;27;45451;-70
2022/03/17 03:04:02;;;;;;;;;22.67;18.67;;;;;12.59;61.94;102016.41;5097817;27;47190;-71
2022/03/17 03:06:27;;;;;;;;;23.00;21.00;;;;;12.40;61.85;101982.38;5098175;27;45374;-70
2022/03/17 03:08:52;;;;;;;;;20.67;20.67;;;;;12.70;61.46;102039.56;5099291;27;45799;-71
2022/03/17 03:11:18;;;;;;;;;18.00;18.00;;;;;12.73;61.76;102040.13;5098445;27;45250;-70
2022/03/17 03:13:43;;;;;;;;;16.67;16.67;;;;;12.64;61.12;102024.91;5099293;27;45605;-70
2022/03/17 03:16:09;;;;;;;;;21.67;18.33;;;;;12.57;60.95;102026.34;5099462;27;45419;-72
2022/03/17 03:18:34;;;;;;;;;16.33;15.33;;;;;12.56;60.34;102026.47;5098638;27;45374;-69
2022/03/17 03:20:59;;;;;;;;;17.67;17.00;;;;;12.54;60.96;102047.09;5097830;27;45275;-75
2022/03/17 03:23:25;;;;;;;;;17.00;15.33;;;;;12.39;61.03;102036.69;5096657;27;48381;-69
2022/03/17 03:25:50;;;;;;;;;16.67;16.67;;;;;11.89;61.02;101952.81;5098787;27;45263;-69
2022/03/17 03:28:16;;;;;;;;;20.00;18.33;;;;;12.35;61.71;102045.09;5097453;27;45277;-70
2022/03/17 03:30:41;;;;;;;;;19.00;19.00;;;;;11.41;61.04;101885.59;5098797;27;45523;-70
2022/03/17 03:33:07;;;;;;;;;20.33;20.00;;;;;12.35;61.48;102053.94;5099050;27;46656;-71
2022/03/17 03:38:19;;;;;;;;;20.00;18.33;;;;;12.32;61.46;102056.00;5098170;27;45679;-70
2022/03/17 03:40:45;;;;;;;;;18.33;16.67;;;;;12.27;61.69;102052.88;5098948;27;45429;-68
2022/03/17 03:43:11;;;;;;;;;17.00;17.00;;;;;12.23;62.04;102062.09;5098395;27;45690;-70
2022/03/17 03:45:37;;;;;;;;;21.67;21.67;;;;;12.22;61.97;102079.91;5098810;27;45431;-69
2022/03/17 03:48:02;;;;;;;;;20.00;18.67;;;;;12.09;62.00;102071.16;5096958;27;45436;-70
2022/03/17 03:50:28;;;;;;;;;20.00;18.67;;;;;12.00;62.30;102069.22;5096953;27;45597;-71
2022/03/17 03:52:53;;;;;;;;;20.00;20.00;;;;;11.93;61.63;102060.00;5098049;27;45656;-71
2022/03/17 03:55:19;;;;;;;;;20.33;18.67;;;;;12.14;61.79;102098.31;5097353;27;46028;-70
2022/03/17 03:57:46;;;;;;;;;20.00;19.67;;;;;11.91;62.07;102069.94;5098327;27;45448;-69
2022/03/17 04:02:56;;;;;;;;;17.00;17.00;;;;;11.84;60.78;102081.09;5089169;27;45437;-69
2022/03/17 04:05:29;;;;;;;;;19.33;18.00;;;;;11.45;60.90;102020.22;5098424;27;45467;-68
2022/03/17 04:07:56;;;;;;;;;22.00;20.67;;;;;11.97;60.76;102128.09;5098470;27;45537;-69
2022/03/17 04:10:31;;;;;;;;;18.33;17.00;;;;;11.92;61.41;102138.28;5098399;27;45625;-70
2022/03/17 04:12:56;;;;;;;;;19.00;19.00;;;;;11.90;61.30;102133.06;5098183;27;46571;-70
2022/03/17 04:15:22;;;;;;;;;14.33;14.33;;;;;11.94;60.81;102147.84;5097508;27;46171;-73
2022/03/17 04:17:49;;;;;;;;;16.00;13.33;;;;;11.89;60.90;102158.00;5098547;27;45342;-71
2022/03/17 04:20:15;;;;;;;;;18.00;15.00;;;;;11.81;60.36;102153.28;5096697;27;45342;-69
2022/03/17 04:22:41;;;;;;;;;16.00;16.00;;;;;11.72;61.00;102142.44;5097401;27;46316;-70
2022/03/17 04:25:07;;;;;;;;;18.33;18.33;;;;;11.73;60.32;102152.13;5096586;27;45885;-70
2022/03/17 04:27:32;;;;;;;;;16.67;15.00;;;;;11.82;60.02;102164.78;5098266;27;45405;-70
2022/03/17 04:30:00;;;;;;;;;14.00;14.00;;;;;11.70;60.21;102139.88;5097539;27;45426;-70
2022/03/17 04:32:26;;;;;;;;;17.67;14.00;;;;;11.80;60.05;102167.53;5098158;27;46272;-71
2022/03/17 04:34:51;;;;;;;;;14.00;14.00;;;;;11.81;59.84;102176.38;5098718;27;45619;-71
2022/03/17 04:37:16;;;;;;;;;12.33;12.33;;;;;11.39;60.51;102120.03;5097947;27;45315;-70
2022/03/17 04:39:42;;;;;;;;;13.00;13.00;;;;;11.72;59.97;102177.06;5098127;27;45463;-71
2022/03/17 04:42:09;;;;;;;;;11.00;9.67;;;;;11.52;59.41;102155.44;5097618;27;46400;-70
2022/03/17 04:44:35;;;;;;;;;13.00;11.33;;;;;11.59;59.27;102174.47;5096096;27;45624;-69
2022/03/17 04:47:00;;;;;;;;;12.00;12.00;;;;;11.63;59.57;102175.97;5098140;27;45328;-69
2022/03/17 04:49:26;;;;;;;;;10.00;10.00;;;;;11.68;59.41;102184.44;5094396;27;45573;-70
2022/03/17 04:51:51;;;;;;;;;14.33;14.00;;;;;11.80;59.61;102204.84;5096719;27;46458;-70
2022/03/17 04:54:16;;;;;;;;;13.67;13.67;;;;;11.67;59.28;102193.41;5096180;27;45477;-70
2022/03/17 04:56:42;;;;;;;;;12.00;12.00;;;;;11.61;59.15;102193.84;5096678;27;45307;-69
2022/03/17 04:59:07;;;;;;;;;9.00;9.00;;;;;11.51;59.25;102174.22;5097252;27;45277;-70
2022/03/17 05:01:33;;;;;;;;;9.33;7.33;;;;;11.32;59.46;102204.03;5097261;27;46635;-68
2022/03/17 05:03:58;;;;;;;;;13.00;10.00;;;;;10.29;59.30;102058.16;5097084;27;45451;-69
2022/03/17 05:06:23;;;;;;;;;14.00;14.00;;;;;11.04;59.47;102183.06;5097529;27;45361;-73
2022/03/17 05:08:49;;;;;;;;;11.00;9.67;;;;;10.86;59.38;102169.28;5095943;27;45517;-69
2022/03/17 05:11:14;;;;;;;;;9.33;9.00;;;;;10.95;59.38;102201.38;5097208;27;45426;-68
2022/03/17 05:13:40;;;;;;;;;9.00;8.00;;;;;10.43;59.03;102102.38;5096992;27;45523;-70
2022/03/17 05:16:07;;;;;;;;;14.00;11.33;;;;;10.50;59.12;102114.25;5097491;27;45278;-71
2022/03/17 05:18:33;;;;;;;;;10.67;10.67;;;;;11.22;59.33;102233.16;5095646;27;45430;-70
2022/03/17 05:20:59;;;;;;;;;15.67;11.67;;;;;11.17;59.45;102235.28;5097859;27;45677;-69
2022/03/17 05:23:25;;;;;;;;;9.00;9.00;;;;;10.71;59.23;102165.91;5096921;27;45437;-69
2022/03/17 05:25:51;;;;;;;;;11.33;9.33;;;;;10.61;59.79;102187.00;5095878;27;45498;-70
2022/03/17 05:28:17;;;;;;;;;11.33;9.00;;;;;11.07;59.89;102262.69;5097425;27;45360;-73
2022/03/17 05:30:44;;;;;;;;;8.00;8.00;;;;;11.14;59.53;102264.78;5096857;27;46290;-70
2022/03/17 05:33:11;;;;;;;;;13.67;11.33;;;;;11.15;59.76;102265.63;5096656;27;45580;-70
2022/03/17 05:35:38;;;;;;;;;10.00;10.00;;;;;11.13;60.05;102271.06;5097134;27;45488;-70
2022/03/17 05:38:04;;;;;;;;;9.00;8.00;;;;;11.07;59.83;102266.19;5096667;27;45536;-70
2022/03/17 05:40:30;;;;;;;;;10.33;10.33;;;;;11.12;59.96;102277.34;5094909;27;48505;-69
2022/03/17 05:42:58;;;;;;;;;9.00;9.00;;;;;11.10;60.07;102276.63;5096615;27;45328;-69
2022/03/17 05:45:26;;;;;;;;;13.67;12.00;;;;;11.16;60.00;102288.63;5095518;27;45305;-70
2022/03/17 05:47:55;;;;;;;;;9.67;9.00;;;;;11.08;59.84;102286.53;5095664;27;45635;-70
2022/03/17 05:50:24;;;;;;;;;9.33;9.33;;;;;11.14;59.96;102294.06;5095434;27;45675;-68
2022/03/17 05:52:50;;;;;;;;;10.33;7.67;;;;;11.17;60.36;102299.16;5095507;27;45426;-70
2022/03/17 05:55:18;;;;;;;;;10.00;9.00;;;;;11.17;60.27;102303.63;5096704;27;45239;-70
2022/03/17 05:57:47;;;;;;;;;15.00;12.33;;;;;11.21;60.03;102298.00;5095287;27;45749;-70
2022/03/17 06:00:16;;;;;;;;;11.00;11.00;;;;;11.18;60.25;102311.50;5095259;27;46551;-69
2022/03/17 06:02:42;;;;;;;;;12.00;10.00;;;;;11.28;59.68;102325.03;5082534;27;45476;-70
2022/03/17 06:05:08;;;;;;;;;8.00;8.00;;;;;11.21;59.18;102313.09;5096548;27;45515;-69
2022/03/17 06:07:38;;;;;;;;;11.67;9.67;;;;;11.27;59.77;102323.31;5096713;27;45154;-71
2022/03/17 06:10:06;;;;;;;;;9.00;9.00;;;;;11.13;59.56;102311.00;5095123;27;48422;-71
2022/03/17 06:12:31;;;;;;;;;8.00;8.00;;;;;11.07;59.29;102295.47;5098868;27;45474;-70
2022/03/17 06:14:57;;;;;;;;;8.67;8.67;;;;;11.25;59.35;102314.59;5100343;27;45423;-70
2022/03/17 06:17:23;;;;;;;;;6.67;5.33;;;;;11.33;59.10;102343.31;5099549;27;45443;-69
2022/03/17 06:19:48;;;;;;;;;11.00;8.67;;;;;10.78;59.41;102265.59;5100037;27;45693;-70
2022/03/17 06:22:14;;;;;;;;;7.33;7.00;;;;;10.75;58.45;102256.97;5098289;27;45398;-69
2022/03/17 06:24:39;;;;;;;;;8.67;8.67;;;;;10.80;57.43;102271.63;5099318;27;45476;-69
2022/03/17 06:27:04;;;;;;;;;8.33;6.00;;;;;11.23;57.45;102364.44;5098624;27;45549;-69
2022/03/17 06:29:30;;;;;;;;;9.67;9.00;;;;;11.06;57.63;102357.66;5099199;27;45995;-70
2022/03/17 06:31:56;;;;;;;;;10.00;9.00;;;;;10.76;57.29;102286.13;5099373;27;45464;-70
2022/03/17 06:34:22;;;;;;;;;7.67;6.67;;;;;11.21;57.46;102372.53;5098645;27;45373;-68
2022/03/17 06:36:47;;;;;;;;;10.00;8.33;;;;;11.22;57.57;102368.91;5099213;27;45212;-70
2022/03/17 06:39:12;;;;;;;;;6.00;5.67;;;;;10.97;57.24;102331.66;5098128;27;47998;-69
2022/03/17 06:41:38;;;;;;;;;5.00;5.00;;;;;11.08;57.23;102371.69;5099440;27;45544;-69
2022/03/17 06:44:04;;;;;;;;;4.67;3.33;;;;;11.08;56.45;102395.66;5099860;27;45464;-69
2022/03/17 06:46:30;;;;;;;;;8.00;7.00;;;;;11.13;56.94;102405.97;5099598;27;45573;-70
2022/03/17 06:48:55;;;;;;;;;5.00;5.00;;;;;10.80;56.80;102351.47;5098616;27;45421;-71
2022/03/17 06:51:21;;;;;;;;;6.00;5.33;;;;;11.22;56.43;102414.19;5099028;27;45438;-72
2022/03/17 06:53:46;;;;;;;;;7.33;6.33;;;;;11.25;56.82;102421.09;5099235;27;45560;-71
2022/03/17 06:56:12;;;;;;;;;7.00;7.00;;;;;11.32;56.33;102426.84;5099719;27;45434;-70
2022/03/17 06:58:39;;;;;;;;;8.00;8.00;;;;;11.31;56.50;102425.97;5097967;27;47973;-70
2022/03/17 07:01:04;;;;;;;;;9.00;9.00;;;;;11.14;56.11;102397.03;5098572;27;45480;-71
2022/03/17 07:03:30;;;;;;;;;7.00;5.33;;;;;10.91;56.33;102387.97;5097623;27;46060;-69
2022/03/17 07:05:55;;;;;;;;;6.33;6.00;;;;;10.64;56.29;102350.84;5099187;27;45607;-72
2022/03/17 07:08:21;;;;;;;;;5.33;4.33;;;;;11.22;56.03;102447.94;5098307;27;46306;-74
2022/03/17 07:10:46;;;;;;;;;7.00;6.33;;;;;11.18;55.49;102452.59;5099237;27;45290;-71
2022/03/17 07:13:13;;;;;;;;;6.00;5.33;;;;;10.91;55.85;102443.84;5098896;27;45258;-70
2022/03/17 07:15:39;;;;;;;;;6.33;6.00;;;;;10.84;55.90;102422.16;5097768;27;45483;-70
2022/03/17 07:18:04;;;;;;;;;6.33;6.33;;;;;10.98;55.65;102445.97;5096780;27;47629;-69
2022/03/17 07:20:29;;;;;;;;;7.33;6.33;;;;;10.90;55.38;102452.81;5098772;27;45472;-71
2022/03/17 07:22:55;;;;;;;;;6.33;6.33;;;;;10.92;54.47;102448.22;5098582;27;45231;-71
2022/03/17 07:25:23;;;;;;;;;6.67;6.00;;;;;10.91;53.68;102459.81;5099225;27;45472;-75
2022/03/17 07:27:49;;;;;;;;;6.67;5.33;;;;;10.84;54.12;102461.22;5100521;27;45770;-77
2022/03/17 07:30:19;;;;;;;;;5.33;5.33;;;;;10.99;53.45;102478.78;5097905;27;45549;-71
2022/03/17 07:32:47;;;;;;;;;6.67;4.33;;;;;10.92;53.97;102486.31;5099382;27;45274;-71
2022/03/17 07:35:13;;;;;;;;;2.67;2.67;;;;;10.72;53.57;102483.31;5099267;27;45519;-70
2022/03/17 07:37:39;;;;;;;;;8.00;5.67;;;;;10.18;54.19;102401.72;5098433;27;45568;-70
2022/03/17 07:40:05;;;;;;;;;4.00;4.00;;;;;10.59;54.57;102509.84;5098779;27;45469;-70
2022/03/17 07:42:31;;;;;;;;;7.00;6.00;;;;;10.51;54.30;102504.19;5098720;27;45273;-68
2022/03/17 07:44:56;;;;;;;;;6.33;6.00;;;;;10.28;54.62;102461.34;5099165;27;45639;-70
2022/03/17 07:47:21;;;;;;;;;9.67;7.67;;;;;10.69;54.06;102518.09;5097651;27;46540;-70
2022/03/17 07:49:47;;;;;;;;;7.33;6.00;;;;;10.64;54.26;102497.97;5097300;27;45374;-69
2022/03/17 07:52:13;;;;;;;;;5.67;5.33;;;;;10.77;54.59;102511.28;5098603;27;45169;-70
2022/03/17 07:54:39;;;;;;;;;4.67;4.67;;;;;10.94;54.10;102512.84;5098746;27;45389;-71
2022/03/17 07:57:06;;;;;;;;;8.00;7.00;;;;;10.03;53.99;102358.44;5096875;27;48523;-71
2022/03/17 07:59:32;;;;;;;;;7.67;7.67;;;;;10.90;53.55;102503.34;5098481;27;45522;-71
2022/03/17 08:01:58;;;;;;;;;8.00;7.00;;;;;10.73;54.46;102514.28;5101047;27;45308;-76
2022/03/17 08:04:23;;;;;;;;;7.33;6.33;;;;;10.83;54.33;102537.53;5120581;27;45315;-71
2022/03/17 08:06:53;;;;;;;;;10.00;8.00;;;;;10.92;54.26;102538.69;5118855;27;46007;-74
2022/03/17 08:09:22;;;;;;;;;6.00;5.00;;;;;10.96;53.88;102542.84;5134906;27;45330;-71
2022/03/17 08:11:48;;;;;;;;;6.00;6.00;;;;;10.77;54.15;102529.06;5117730;27;45405;-72
2022/03/17 08:14:17;;;;;;;;;8.00;8.00;;;;;10.88;53.62;102535.41;5119313;27;45434;-69
2022/03/17 08:16:46;;;;;;;;;9.00;8.00;;;;;10.98;53.58;102562.22;5118644;27;46223;-70
2022/03/17 08:19:12;;;;;;;;;10.33;7.67;;;;;10.74;53.80;102521.28;5117432;27;46272;-73
2022/03/17 08:21:41;;;;;;;;;8.33;8.33;;;;;10.96;53.30;102546.38;5118843;27;45334;-77
2022/03/17 08:24:07;;;;;;;;;7.33;7.33;;;;;11.10;53.50;102561.41;5116731;27;45431;-70
2022/03/17 08:26:33;;;;;;;;;7.00;7.00;;;;;11.05;52.85;102579.53;5098229;27;45737;-70
2022/03/17 08:29:00;;;;;;;;;7.00;7.00;;;;;11.03;52.92;102584.09;5096838;27;45368;-70
2022/03/17 08:31:30;;;;;;;;;9.00;8.00;;;;;10.92;53.30;102575.94;5098466;27;45548;-71
2022/03/17 08:33:58;;;;;;;;;8.33;7.67;;;;;10.72;53.63;102576.41;5097856;27;45390;-70
2022/03/17 08:36:24;;;;;;;;;10.33;9.33;;;;;10.54;54.36;102581.97;5096654;27;47543;-70
2022/03/17 08:38:51;;;;;;;;;10.33;9.00;;;;;10.50;54.81;102599.06;5097923;27;45419;-69
2022/03/17 08:41:17;;;;;;;;;7.00;7.00;;;;;10.46;54.37;102586.94;5096482;27;45496;-69
2022/03/17 08:43:43;;;;;;;;;9.00;9.00;;;;;10.63;54.75;102605.31;5098076;27;45411;-69
2022/03/17 08:51:50;;;;;;;;;10.33;9.67;;;;;10.87;54.18;102617.97;5088187;27;45496;-69
2022/03/17 08:54:16;;;;;;;;;10.67;10.67;;;;;11.06;53.93;102625.63;5097675;27;45390;-70
2022/03/17 08:56:42;;;;;;;;;6.00;6.00;;;;;10.42;53.65;102526.94;5097403;27;45558;-70
2022/03/17 08:59:10;;;;;;;;;10.33;8.00;;;;;10.92;53.54;102626.50;5097842;27;45253;-69
2022/03/17 09:01:38;;;;;;;;;11.33;9.33;;;;;10.93;53.50;102633.53;5097757;27;45265;-70
2022/03/17 09:04:06;;;;;;;;;10.00;10.00;;;;;10.59;53.79;102558.56;5096135;27;45465;-70
2022/03/17 09:06:32;;;;;;;;;13.33;10.00;;;;;11.20;54.06;102655.66;5096092;27;47490;-71
2022/03/17 09:09:00;;;;;;;;;10.00;10.00;;;;;11.18;53.56;102630.13;5097416;27;45389;-72
2022/03/17 09:11:26;;;;;;;;;12.00;11.33;;;;;11.33;52.88;102637.09;5097865;27;45284;-71
2022/03/17 09:13:52;;;;;;;;;15.67;12.67;;;;;11.37;53.47;102651.03;5097784;27;45247;-70
2022/03/17 09:16:17;;;;;;;;;4.00;4.00;;;;;10.89;52.90;102600.97;5095960;27;46629;-70
2022/03/17 09:18:43;;;;;;;;;12.00;11.00;;;;;10.95;53.63;102616.50;5097383;27;45396;-70
2022/03/17 09:21:09;;;;;;;;;11.00;10.00;;;;;11.24;53.49;102651.03;5097359;27;45485;-69
2022/03/17 09:23:35;;;;;;;;;9.00;9.00;;;;;10.92;53.33;102605.22;5097250;27;45300;-72
2022/03/17 09:26:01;;;;;;;;;14.67;12.00;;;;;11.39;53.38;102667.78;5096321;27;46076;-72
2022/03/17 09:28:29;;;;;;;;;12.00;12.00;;;;;11.20;53.05;102631.72;5097294;27;45482;-71
2022/03/17 09:30:55;;;;;;;;;10.33;10.33;;;;;11.33;53.07;102652.22;5097576;27;45354;-71
2022/03/17 09:33:25;;;;;;;;;10.33;10.33;;;;;11.43;53.24;102677.28;5100239;27;45414;-72
2022/03/17 09:35:57;;;;;;;;;13.00;10.50;;;;;11.29;53.70;102662.22;5117970;27;46170;-72
2022/03/17 09:38:23;;;;;;;;;10.00;9.00;;;;;11.17;52.98;102626.59;5117637;27;45471;-72
2022/03/17 09:40:49;;;;;;;;;16.33;15.33;;;;;11.76;52.51;102688.31;5100646;27;45389;-71
2022/03/17 09:43:28;;;;;;;;;14.00;12.33;;;;;10.87;52.01;102530.19;5097532;27;45520;-71
2022/03/17 09:45:56;;;;;;;;;16.67;11.67;;;;;11.55;51.66;102673.78;5098895;27;46057;-74
2022/03/17 09:48:23;;;;;;;;;13.00;12.33;;;;;11.64;51.13;102673.19;5099391;27;45293;-72
2022/03/17 09:50:55;;;;;;;;;13.00;11.00;;;;;11.41;51.68;102696.03;5100627;27;45463;-71
2022/03/17 09:53:23;;;;;;;;;13.00;13.00;;;;;10.99;52.42;102670.38;5100803;27;45165;-70
2022/03/17 09:55:50;;;;;;;;;17.00;15.00;;;;;10.94;52.70;102693.78;5100332;27;45916;-70
2022/03/17 09:58:16;;;;;;;;;11.00;9.00;;;;;10.95;53.12;102700.81;5100921;27;45416;-72
2022/03/17 10:00:48;;;;;;;;;12.33;12.33;;;;;11.15;52.43;102697.72;5099894;27;45374;-74
2022/03/17 10:03:18;;;;;;;;;12.00;12.00;;;;;11.05;51.82;102654.03;5100749;27;45496;-73
2022/03/17 10:05:46;;;;;;;;;8.67;8.67;;;;;11.23;51.95;102700.75;5100399;27;46064;-72
2022/03/17 10:08:12;;;;;;;;;12.67;12.33;;;;;11.16;52.02;102715.41;5101621;27;45368;-71
2022/03/17 10:10:42;;;;;;;;;9.67;8.67;;;;;11.13;51.54;102709.44;5099093;27;45356;-74
2022/03/17 10:13:17;;;;;;;;;8.67;8.67;;;;;11.25;51.90;102716.63;5100671;27;45209;-71
2022/03/17 10:15:46;;;;;;;;;13.00;10.33;;;;;11.27;51.20;102702.25;5100215;27;46636;-73
2022/03/17 10:18:19;;;;;;;;;15.00;11.33;;;;;11.41;50.87;102717.34;5098515;27;45478;-71
2022/03/17 10:20:46;;;;;;;;;10.33;6.33;;;;;11.26;50.75;102705.03;5100097;27;45362;-71
2022/03/17 10:23:11;;;;;;;;;13.67;11.33;;;;;11.20;51.19;102726.72;5100239;27;45511;-70
2022/03/17 10:25:37;;;;;;;;;9.33;8.33;;;;;11.04;50.96;102704.72;5099668;27;47826;-72
2022/03/17 10:28:03;;;;;;;;;11.00;8.67;;;;;11.16;50.99;102725.19;5112178;27;45481;-71
2022/03/17 10:30:35;;;;;;;;;6.67;5.67;;;;;11.03;51.51;102714.50;5119717;27;45425;-74
2022/03/17 10:33:11;;;;;;;;;7.67;7.67;;;;;11.15;51.33;102737.66;5119780;27;45255;-72
2022/03/17 10:35:38;;;;;;;;;11.33;10.33;;;;;11.05;51.02;102719.75;5120375;27;46654;-72
2022/03/17 10:38:18;;;;;;;;;11.67;10.67;;;;;10.80;51.15;102675.19;5119106;27;45593;-72
2022/03/17 10:40:59;;;;;;;;;13.67;11.33;;;;;10.93;51.38;102702.72;5120758;27;45401;-72
2022/03/17 10:43:25;;;;;;;;;5.00;5.00;;;;;11.27;51.02;102744.00;5120666;27;45416;-74
2022/03/17 10:46:19;;;;;;;;;14.00;10.50;;;;;11.13;51.91;102736.91;5118641;27;47340;-71
2022/03/17 10:48:59;;;;;;;;;10.00;9.00;;;;;11.26;51.44;102751.16;5118812;27;45352;-74
2022/03/17 10:51:41;;;;;;;;;14.67;11.00;;;;;10.59;51.34;102654.31;5119345;27;45446;-72
2022/03/17 10:54:15;;;;;;;;;12.33;11.67;;;;;11.15;51.29;102755.44;5120390;27;45322;-72
2022/03/17 10:56:41;;;;;;;;;10.00;10.00;;;;;11.27;51.38;102755.50;5098729;27;47412;-71
2022/03/17 10:59:08;;;;;;;;;11.00;11.00;;;;;11.37;50.80;102741.59;5098015;27;45524;-73
2022/03/17 11:01:38;;;;;;;;;9.00;9.00;;;;;11.43;50.91;102759.84;5098313;27;45498;-74
2022/03/17 11:04:04;;;;;;;;;14.67;11.67;;;;;11.56;50.08;102761.59;5099796;27;45333;-71
2022/03/17 11:06:30;;;;;;;;;10.00;9.33;;;;;11.53;50.51;102766.28;5098078;27;46605;-72
2022/03/17 11:09:00;;;;;;;;;12.33;11.00;;;;;11.70;50.70;102773.16;5099511;27;45324;-72
2022/03/17 11:11:32;;;;;;;;;14.33;13.00;;;;;11.82;50.39;102773.25;5098281;27;45308;-73
2022/03/17 11:13:59;;;;;;;;;11.33;11.00;;;;;11.81;50.60;102765.31;5100464;27;45172;-72
2022/03/17 11:16:51;;;;;;;;;10.67;10.67;;;;;11.81;50.66;102775.97;5099452;27;46023;-73
2022/03/17 11:19:22;;;;;;;;;17.00;11.67;;;;;11.78;49.89;102763.72;5094913;27;45559;-73
2022/03/17 11:21:49;;;;;;;;;15.00;11.67;;;;;11.09;49.95;102647.56;5099866;27;45491;-73
2022/03/17 11:24:19;;;;;;;;;14.67;13.67;;;;;11.84;50.35;102751.81;5098949;27;45376;-72
2022/03/17 11:26:46;;;;;;;;;6.67;4.00;;;;;12.00;50.11;102759.59;5077662;27;47675;-72
2022/03/17 11:29:17;;;;;;;;;11.33;10.33;;;;;12.07;49.85;102784.91;5094697;27;45663;-75
2022/03/17 11:31:56;;;;;;;;;14.67;13.67;;;;;12.04;50.60;102788.63;5077489;27;45412;-74